sensor_id;sensor_type;location;lat;lon;timestamp;P1;durP1;ratioP1;P2;durP2;ratioP2
12840;SDS011;6487;48.626;12.486;2022-09-24T00:02:24;5.30;;;4.80;;
12840;SDS011;6487;48.626;12.486;2022-09-24T00:04:53;5.23;;;4.73;;
12840;SDS011;6487;48.626;12.486;2022-09-24T00:07:21;7.03;;;5.00;;
12840;SDS011;6487;48.626;12.486;2022-09-24T00:09:49;5.57;;;5.00;;
12840;SDS011;6487;48.626;12.486;2022-09-24T00:12:18;4.87;;;4.43;;
12840;SDS011;6487;48.626;12.486;2022-09-24T00:14:47;5.17;;;4.57;;
12840;SDS011;6487;48.626;12.486;2022-09-24T00:17:15;5.40;;;4.87;;
12840;SDS011;6487;48.626;12.486;2022-09-24T00:19:45;4.93;;;4.43;;
12840;SDS011;6487;48.626;12.486;2022-09-24T00:22:13;5.47;;;4.97;;
12840;SDS011;6487;48.626;12.486;2022-09-24T00:24:41;4.80;;;4.40;;
12840;SDS011;6487;48.626;12.486;2022-09-24T00:27:27;6.57;;;4.60;;
12840;SDS011;6487;48.626;12.486;2022-09-24T00:29:56;4.83;;;3.87;;
12840;SDS011;6487;48.626;12.486;2022-09-24T00:32:24;4.60;;;3.93;;
12840;SDS011;6487;48.626;12.486;2022-09-24T00:34:54;7.17;;;4.40;;
12840;SDS011;6487;48.626;12.486;2022-09-24T00:37:22;4.33;;;4.00;;
12840;SDS011;6487;48.626;12.486;2022-09-24T00:39:51;5.17;;;4.70;;
12840;SDS011;6487;48.626;12.486;2022-09-24T00:42:19;6.57;;;4.53;;
12840;SDS011;6487;48.626;12.486;2022-09-24T00:44:49;4.63;;;4.23;;
12840;SDS011;6487;48.626;12.486;2022-09-24T00:50:13;4.23;;;3.83;;
12840;SDS011;6487;48.626;12.486;2022-09-24T00:52:46;5.10;;;3.80;;
12840;SDS011;6487;48.626;12.486;2022-09-24T00:55:19;5.20;;;3.87;;
12840;SDS011;6487;48.626;12.486;2022-09-24T00:57:50;4.07;;;3.67;;
12840;SDS011;6487;48.626;12.486;2022-09-24T01:00:23;4.73;;;4.27;;
12840;SDS011;6487;48.626;12.486;2022-09-24T01:02:54;4.30;;;3.90;;
12840;SDS011;6487;48.626;12.486;2022-09-24T01:05:30;5.17;;;3.80;;
12840;SDS011;6487;48.626;12.486;2022-09-24T01:07:58;3.83;;;3.47;;
12840;SDS011;6487;48.626;12.486;2022-09-24T01:10:30;4.83;;;4.17;;
12840;SDS011;6487;48.626;12.486;2022-09-24T01:13:20;5.40;;;4.07;;
12840;SDS011;6487;48.626;12.486;2022-09-24T01:16:11;5.77;;;3.80;;
12840;SDS011;6487;48.626;12.486;2022-09-24T01:18:48;4.67;;;4.27;;
12840;SDS011;6487;48.626;12.486;2022-09-24T01:21:26;6.30;;;4.03;;
12840;SDS011;6487;48.626;12.486;2022-09-24T01:24:17;4.97;;;4.40;;
12840;SDS011;6487;48.626;12.486;2022-09-24T01:27:02;6.57;;;4.17;;
12840;SDS011;6487;48.626;12.486;2022-09-24T01:29:40;5.93;;;4.40;;
12840;SDS011;6487;48.626;12.486;2022-09-24T01:32:19;4.73;;;4.20;;
12840;SDS011;6487;48.626;12.486;2022-09-24T01:34:58;4.77;;;4.27;;
12840;SDS011;6487;48.626;12.486;2022-09-24T01:37:32;4.60;;;3.83;;
12840;SDS011;6487;48.626;12.486;2022-09-24T01:40:04;8.17;;;4.80;;
12840;SDS011;6487;48.626;12.486;2022-09-24T01:42:34;4.70;;;3.93;;
12840;SDS011;6487;48.626;12.486;2022-09-24T01:45:07;6.73;;;4.13;;
12840;SDS011;6487;48.626;12.486;2022-09-24T01:47:37;4.17;;;3.77;;
12840;SDS011;6487;48.626;12.486;2022-09-24T01:50:08;5.53;;;4.13;;
12840;SDS011;6487;48.626;12.486;2022-09-24T01:52:42;7.77;;;4.20;;
12840;SDS011;6487;48.626;12.486;2022-09-24T01:55:16;5.33;;;3.97;;
12840;SDS011;6487;48.626;12.486;2022-09-24T01:57:51;5.57;;;4.23;;
12840;SDS011;6487;48.626;12.486;2022-09-24T02:00:27;4.53;;;4.13;;
12840;SDS011;6487;48.626;12.486;2022-09-24T02:02:57;4.80;;;4.30;;
12840;SDS011;6487;48.626;12.486;2022-09-24T02:05:35;4.63;;;4.20;;
12840;SDS011;6487;48.626;12.486;2022-09-24T02:08:09;5.10;;;4.60;;
12840;SDS011;6487;48.626;12.486;2022-09-24T02:10:44;6.30;;;4.87;;
12840;SDS011;6487;48.626;12.486;2022-09-24T02:13:17;6.37;;;4.93;;
12840;SDS011;6487;48.626;12.486;2022-09-24T02:15:52;6.20;;;4.40;;
12840;SDS011;6487;48.626;12.486;2022-09-24T02:18:25;5.70;;;4.50;;
12840;SDS011;6487;48.626;12.486;2022-09-24T02:20:58;4.47;;;4.07;;
12840;SDS011;6487;48.626;12.486;2022-09-24T02:23:30;5.10;;;4.60;;
12840;SDS011;6487;48.626;12.486;2022-09-24T02:26:03;4.73;;;4.27;;
12840;SDS011;6487;48.626;12.486;2022-09-24T02:28:32;4.70;;;4.20;;
12840;SDS011;6487;48.626;12.486;2022-09-24T02:31:03;5.80;;;3.93;;
12840;SDS011;6487;48.626;12.486;2022-09-24T02:33:35;6.67;;;5.30;;
12840;SDS011;6487;48.626;12.486;2022-09-24T02:36:26;5.30;;;4.33;;
12840;SDS011;6487;48.626;12.486;2022-09-24T02:38:55;4.83;;;4.43;;
12840;SDS011;6487;48.626;12.486;2022-09-24T02:41:23;4.97;;;3.50;;
12840;SDS011;6487;48.626;12.486;2022-09-24T02:43:53;4.53;;;3.97;;
12840;SDS011;6487;48.626;12.486;2022-09-24T02:46:23;6.17;;;4.70;;
12840;SDS011;6487;48.626;12.486;2022-09-24T02:48:51;4.90;;;4.20;;
12840;SDS011;6487;48.626;12.486;2022-09-24T02:51:20;5.17;;;4.30;;
12840;SDS011;6487;48.626;12.486;2022-09-24T02:53:48;4.87;;;4.33;;
12840;SDS011;6487;48.626;12.486;2022-09-24T02:56:16;4.03;;;3.57;;
12840;SDS011;6487;48.626;12.486;2022-09-24T02:58:44;7.97;;;4.07;;
12840;SDS011;6487;48.626;12.486;2022-09-24T03:01:13;8.83;;;4.13;;
12840;SDS011;6487;48.626;12.486;2022-09-24T03:03:43;5.23;;;4.23;;
12840;SDS011;6487;48.626;12.486;2022-09-24T03:06:11;5.10;;;4.60;;
12840;SDS011;6487;48.626;12.486;2022-09-24T03:08:40;9.33;;;5.13;;
12840;SDS011;6487;48.626;12.486;2022-09-24T03:11:08;4.77;;;4.37;;
12840;SDS011;6487;48.626;12.486;2022-09-24T03:13:43;6.03;;;4.37;;
12840;SDS011;6487;48.626;12.486;2022-09-24T03:16:12;5.80;;;4.27;;
12840;SDS011;6487;48.626;12.486;2022-09-24T03:18:42;6.40;;;4.53;;
12840;SDS011;6487;48.626;12.486;2022-09-24T03:21:13;5.23;;;4.73;;
12840;SDS011;6487;48.626;12.486;2022-09-24T03:23:43;5.97;;;4.40;;
12840;SDS011;6487;48.626;12.486;2022-09-24T03:26:12;5.33;;;4.33;;
12840;SDS011;6487;48.626;12.486;2022-09-24T03:28:41;4.77;;;4.37;;
12840;SDS011;6487;48.626;12.486;2022-09-24T03:31:09;6.33;;;4.10;;
12840;SDS011;6487;48.626;12.486;2022-09-24T03:33:38;4.33;;;3.87;;
12840;SDS011;6487;48.626;12.486;2022-09-24T03:36:11;5.10;;;3.90;;
12840;SDS011;6487;48.626;12.486;2022-09-24T03:38:42;4.47;;;3.90;;
12840;SDS011;6487;48.626;12.486;2022-09-24T03:41:12;6.03;;;4.10;;
12840;SDS011;6487;48.626;12.486;2022-09-24T03:43:42;4.17;;;3.67;;
12840;SDS011;6487;48.626;12.486;2022-09-24T03:46:11;3.83;;;3.53;;
12840;SDS011;6487;48.626;12.486;2022-09-24T03:48:42;4.60;;;4.03;;
12840;SDS011;6487;48.626;12.486;2022-09-24T03:51:14;4.93;;;4.03;;
12840;SDS011;6487;48.626;12.486;2022-09-24T03:53:45;4.20;;;3.80;;
12840;SDS011;6487;48.626;12.486;2022-09-24T03:56:14;4.30;;;3.90;;
12840;SDS011;6487;48.626;12.486;2022-09-24T03:58:43;5.00;;;3.73;;
12840;SDS011;6487;48.626;12.486;2022-09-24T04:01:13;4.40;;;4.00;;
12840;SDS011;6487;48.626;12.486;2022-09-24T04:03:47;4.90;;;3.90;;
12840;SDS011;6487;48.626;12.486;2022-09-24T04:06:17;5.70;;;3.80;;
12840;SDS011;6487;48.626;12.486;2022-09-24T04:08:51;4.63;;;3.90;;
12840;SDS011;6487;48.626;12.486;2022-09-24T04:11:20;4.13;;;3.83;;
12840;SDS011;6487;48.626;12.486;2022-09-24T04:13:49;5.23;;;3.53;;
12840;SDS011;6487;48.626;12.486;2022-09-24T04:16:18;4.13;;;3.57;;
12840;SDS011;6487;48.626;12.486;2022-09-24T04:18:46;4.50;;;4.10;;
12840;SDS011;6487;48.626;12.486;2022-09-24T04:21:15;4.23;;;3.60;;
12840;SDS011;6487;48.626;12.486;2022-09-24T04:23:45;4.50;;;3.63;;
12840;SDS011;6487;48.626;12.486;2022-09-24T04:26:13;4.17;;;3.87;;
12840;SDS011;6487;48.626;12.486;2022-09-24T04:28:42;6.23;;;4.90;;
12840;SDS011;6487;48.626;12.486;2022-09-24T04:31:10;10.33;;;6.30;;
12840;SDS011;6487;48.626;12.486;2022-09-24T04:33:38;11.07;;;7.00;;
12840;SDS011;6487;48.626;12.486;2022-09-24T04:36:07;8.03;;;5.73;;
12840;SDS011;6487;48.626;12.486;2022-09-24T04:38:36;8.90;;;6.40;;
12840;SDS011;6487;48.626;12.486;2022-09-24T04:41:05;6.73;;;5.90;;
12840;SDS011;6487;48.626;12.486;2022-09-24T04:43:35;7.23;;;5.73;;
12840;SDS011;6487;48.626;12.486;2022-09-24T04:46:03;8.57;;;5.40;;
12840;SDS011;6487;48.626;12.486;2022-09-24T04:48:34;6.43;;;5.83;;
12840;SDS011;6487;48.626;12.486;2022-09-24T04:51:03;5.60;;;5.10;;
12840;SDS011;6487;48.626;12.486;2022-09-24T04:53:32;4.97;;;4.47;;
12840;SDS011;6487;48.626;12.486;2022-09-24T04:56:04;5.20;;;4.40;;
12840;SDS011;6487;48.626;12.486;2022-09-24T04:58:37;5.53;;;5.03;;
12840;SDS011;6487;48.626;12.486;2022-09-24T05:01:06;7.57;;;5.10;;
12840;SDS011;6487;48.626;12.486;2022-09-24T05:03:34;6.93;;;5.73;;
12840;SDS011;6487;48.626;12.486;2022-09-24T05:06:02;6.20;;;5.60;;
12840;SDS011;6487;48.626;12.486;2022-09-24T05:08:31;6.03;;;5.43;;
12840;SDS011;6487;48.626;12.486;2022-09-24T05:10:59;6.00;;;5.03;;
12840;SDS011;6487;48.626;12.486;2022-09-24T05:13:29;6.17;;;5.67;;
12840;SDS011;6487;48.626;12.486;2022-09-24T05:15:57;6.00;;;5.40;;
12840;SDS011;6487;48.626;12.486;2022-09-24T05:18:26;6.00;;;5.33;;
12840;SDS011;6487;48.626;12.486;2022-09-24T05:20:54;5.70;;;5.10;;
12840;SDS011;6487;48.626;12.486;2022-09-24T05:23:23;6.37;;;5.77;;
12840;SDS011;6487;48.626;12.486;2022-09-24T05:25:51;6.77;;;5.53;;
12840;SDS011;6487;48.626;12.486;2022-09-24T05:28:38;5.60;;;5.10;;
12840;SDS011;6487;48.626;12.486;2022-09-24T05:31:08;6.90;;;5.53;;
12840;SDS011;6487;48.626;12.486;2022-09-24T05:33:37;6.47;;;5.77;;
12840;SDS011;6487;48.626;12.486;2022-09-24T05:36:05;7.70;;;6.00;;
12840;SDS011;6487;48.626;12.486;2022-09-24T05:38:33;5.77;;;5.27;;
12840;SDS011;6487;48.626;12.486;2022-09-24T05:41:06;6.47;;;5.63;;
12840;SDS011;6487;48.626;12.486;2022-09-24T05:43:35;6.43;;;5.83;;
12840;SDS011;6487;48.626;12.486;2022-09-24T05:46:05;8.67;;;6.83;;
12840;SDS011;6487;48.626;12.486;2022-09-24T05:48:33;7.17;;;6.47;;
12840;SDS011;6487;48.626;12.486;2022-09-24T05:51:02;9.97;;;7.20;;
12840;SDS011;6487;48.626;12.486;2022-09-24T05:53:31;7.70;;;7.00;;
12840;SDS011;6487;48.626;12.486;2022-09-24T05:56:00;8.03;;;6.80;;
12840;SDS011;6487;48.626;12.486;2022-09-24T05:58:28;6.50;;;5.90;;
12840;SDS011;6487;48.626;12.486;2022-09-24T06:00:57;15.93;;;7.27;;
12840;SDS011;6487;48.626;12.486;2022-09-24T06:03:27;7.50;;;6.67;;
12840;SDS011;6487;48.626;12.486;2022-09-24T06:05:57;9.23;;;7.07;;
12840;SDS011;6487;48.626;12.486;2022-09-24T06:08:27;8.03;;;6.83;;
12840;SDS011;6487;48.626;12.486;2022-09-24T06:10:58;10.70;;;7.67;;
12840;SDS011;6487;48.626;12.486;2022-09-24T06:13:27;8.73;;;7.73;;
12840;SDS011;6487;48.626;12.486;2022-09-24T06:15:58;8.13;;;7.03;;
12840;SDS011;6487;48.626;12.486;2022-09-24T06:18:29;9.47;;;8.17;;
12840;SDS011;6487;48.626;12.486;2022-09-24T06:21:00;8.47;;;7.67;;
12840;SDS011;6487;48.626;12.486;2022-09-24T06:23:29;8.07;;;7.37;;
12840;SDS011;6487;48.626;12.486;2022-09-24T06:25:58;8.83;;;7.40;;
12840;SDS011;6487;48.626;12.486;2022-09-24T06:28:26;8.57;;;7.10;;
12840;SDS011;6487;48.626;12.486;2022-09-24T06:30:57;8.70;;;7.60;;
12840;SDS011;6487;48.626;12.486;2022-09-24T06:33:26;7.90;;;7.13;;
12840;SDS011;6487;48.626;12.486;2022-09-24T06:35:58;7.97;;;7.27;;
12840;SDS011;6487;48.626;12.486;2022-09-24T06:38:27;8.43;;;7.53;;
12840;SDS011;6487;48.626;12.486;2022-09-24T06:40:57;8.40;;;7.60;;
12840;SDS011;6487;48.626;12.486;2022-09-24T06:43:27;8.40;;;7.60;;
12840;SDS011;6487;48.626;12.486;2022-09-24T06:45:56;8.03;;;7.23;;
12840;SDS011;6487;48.626;12.486;2022-09-24T06:48:26;8.90;;;7.63;;
12840;SDS011;6487;48.626;12.486;2022-09-24T06:50:57;9.40;;;8.23;;
12840;SDS011;6487;48.626;12.486;2022-09-24T06:53:26;11.17;;;8.63;;
12840;SDS011;6487;48.626;12.486;2022-09-24T06:55:55;13.03;;;7.97;;
12840;SDS011;6487;48.626;12.486;2022-09-24T06:58:25;13.67;;;8.53;;
12840;SDS011;6487;48.626;12.486;2022-09-24T07:00:54;8.97;;;7.93;;
12840;SDS011;6487;48.626;12.486;2022-09-24T07:03:25;9.50;;;8.70;;
12840;SDS011;6487;48.626;12.486;2022-09-24T07:05:58;9.30;;;8.40;;
12840;SDS011;6487;48.626;12.486;2022-09-24T07:08:28;9.77;;;8.43;;
12840;SDS011;6487;48.626;12.486;2022-09-24T07:10:57;9.63;;;8.70;;
12840;SDS011;6487;48.626;12.486;2022-09-24T07:13:27;9.80;;;8.90;;
12840;SDS011;6487;48.626;12.486;2022-09-24T07:15:55;11.00;;;8.57;;
12840;SDS011;6487;48.626;12.486;2022-09-24T07:18:24;9.20;;;8.40;;
12840;SDS011;6487;48.626;12.486;2022-09-24T07:20:54;9.90;;;7.93;;
12840;SDS011;6487;48.626;12.486;2022-09-24T07:23:22;8.93;;;8.13;;
12840;SDS011;6487;48.626;12.486;2022-09-24T07:25:54;8.77;;;7.87;;
12840;SDS011;6487;48.626;12.486;2022-09-24T07:28:23;8.67;;;7.97;;
12840;SDS011;6487;48.626;12.486;2022-09-24T07:30:55;9.27;;;7.90;;
12840;SDS011;6487;48.626;12.486;2022-09-24T07:33:24;9.03;;;8.23;;
12840;SDS011;6487;48.626;12.486;2022-09-24T07:35:54;8.70;;;7.83;;
12840;SDS011;6487;48.626;12.486;2022-09-24T07:38:22;9.87;;;8.87;;
12840;SDS011;6487;48.626;12.486;2022-09-24T07:40:51;8.80;;;8.10;;
12840;SDS011;6487;48.626;12.486;2022-09-24T07:43:24;8.93;;;7.77;;
12840;SDS011;6487;48.626;12.486;2022-09-24T07:45:53;8.23;;;7.53;;
12840;SDS011;6487;48.626;12.486;2022-09-24T07:48:23;8.50;;;7.70;;
12840;SDS011;6487;48.626;12.486;2022-09-24T07:50:51;8.67;;;7.67;;
12840;SDS011;6487;48.626;12.486;2022-09-24T07:53:21;8.23;;;7.53;;
12840;SDS011;6487;48.626;12.486;2022-09-24T07:55:49;11.00;;;8.17;;
12840;SDS011;6487;48.626;12.486;2022-09-24T07:58:18;9.27;;;8.33;;
12840;SDS011;6487;48.626;12.486;2022-09-24T08:00:47;9.23;;;7.57;;
12840;SDS011;6487;48.626;12.486;2022-09-24T08:03:15;7.97;;;7.37;;
12840;SDS011;6487;48.626;12.486;2022-09-24T08:05:43;9.03;;;7.23;;
12840;SDS011;6487;48.626;12.486;2022-09-24T08:08:12;6.57;;;5.97;;
12840;SDS011;6487;48.626;12.486;2022-09-24T08:10:42;7.53;;;6.83;;
12840;SDS011;6487;48.626;12.486;2022-09-24T08:13:10;6.03;;;5.53;;
12840;SDS011;6487;48.626;12.486;2022-09-24T08:15:39;8.27;;;5.83;;
12840;SDS011;6487;48.626;12.486;2022-09-24T08:18:07;6.37;;;5.63;;
12840;SDS011;6487;48.626;12.486;2022-09-24T08:20:36;7.10;;;6.40;;
12840;SDS011;6487;48.626;12.486;2022-09-24T08:23:06;6.17;;;5.57;;
12840;SDS011;6487;48.626;12.486;2022-09-24T08:25:36;6.33;;;5.83;;
12840;SDS011;6487;48.626;12.486;2022-09-24T08:28:06;18.00;;;15.23;;
12840;SDS011;6487;48.626;12.486;2022-09-24T08:30:37;8.33;;;7.63;;
12840;SDS011;6487;48.626;12.486;2022-09-24T08:33:06;6.67;;;5.90;;
12840;SDS011;6487;48.626;12.486;2022-09-24T08:35:34;7.37;;;6.67;;
12840;SDS011;6487;48.626;12.486;2022-09-24T08:38:05;7.83;;;7.10;;
12840;SDS011;6487;48.626;12.486;2022-09-24T08:40:35;6.80;;;6.30;;
12840;SDS011;6487;48.626;12.486;2022-09-24T08:43:15;7.63;;;6.90;;
12840;SDS011;6487;48.626;12.486;2022-09-24T08:45:55;9.17;;;7.27;;
12840;SDS011;6487;48.626;12.486;2022-09-24T08:48:39;8.30;;;6.83;;
12840;SDS011;6487;48.626;12.486;2022-09-24T08:51:12;8.73;;;7.83;;
12840;SDS011;6487;48.626;12.486;2022-09-24T08:53:45;9.30;;;7.23;;
12840;SDS011;6487;48.626;12.486;2022-09-24T08:56:19;8.10;;;7.30;;
12840;SDS011;6487;48.626;12.486;2022-09-24T08:58:54;8.00;;;7.30;;
12840;SDS011;6487;48.626;12.486;2022-09-24T09:01:29;7.17;;;6.57;;
12840;SDS011;6487;48.626;12.486;2022-09-24T09:04:04;7.23;;;6.53;;
12840;SDS011;6487;48.626;12.486;2022-09-24T09:06:51;9.27;;;6.77;;
12840;SDS011;6487;48.626;12.486;2022-09-24T09:09:36;7.27;;;6.60;;
12840;SDS011;6487;48.626;12.486;2022-09-24T09:12:12;7.23;;;6.63;;
12840;SDS011;6487;48.626;12.486;2022-09-24T09:14:48;6.90;;;6.07;;
12840;SDS011;6487;48.626;12.486;2022-09-24T09:17:23;7.40;;;6.63;;
12840;SDS011;6487;48.626;12.486;2022-09-24T09:20:05;7.27;;;6.37;;
12840;SDS011;6487;48.626;12.486;2022-09-24T09:22:46;7.27;;;6.57;;
12840;SDS011;6487;48.626;12.486;2022-09-24T09:25:18;7.67;;;6.83;;
12840;SDS011;6487;48.626;12.486;2022-09-24T09:27:52;7.73;;;6.57;;
12840;SDS011;6487;48.626;12.486;2022-09-24T09:30:27;8.47;;;6.67;;
12840;SDS011;6487;48.626;12.486;2022-09-24T09:33:06;8.43;;;7.37;;
12840;SDS011;6487;48.626;12.486;2022-09-24T09:35:48;8.00;;;7.20;;
12840;SDS011;6487;48.626;12.486;2022-09-24T09:38:24;9.97;;;8.97;;
12840;SDS011;6487;48.626;12.486;2022-09-24T09:41:01;9.50;;;8.50;;
12840;SDS011;6487;48.626;12.486;2022-09-24T09:43:38;8.50;;;7.60;;
12840;SDS011;6487;48.626;12.486;2022-09-24T09:46:10;8.83;;;7.30;;
12840;SDS011;6487;48.626;12.486;2022-09-24T09:48:43;8.20;;;7.17;;
12840;SDS011;6487;48.626;12.486;2022-09-24T09:51:15;7.90;;;7.10;;
12840;SDS011;6487;48.626;12.486;2022-09-24T09:53:52;7.80;;;7.20;;
12840;SDS011;6487;48.626;12.486;2022-09-24T09:56:23;9.70;;;7.00;;
12840;SDS011;6487;48.626;12.486;2022-09-24T09:59:00;7.27;;;6.57;;
12840;SDS011;6487;48.626;12.486;2022-09-24T10:01:34;7.80;;;7.10;;
12840;SDS011;6487;48.626;12.486;2022-09-24T10:04:17;7.90;;;6.63;;
12840;SDS011;6487;48.626;12.486;2022-09-24T10:07:05;8.30;;;7.00;;
12840;SDS011;6487;48.626;12.486;2022-09-24T10:09:36;8.93;;;8.03;;
12840;SDS011;6487;48.626;12.486;2022-09-24T10:12:13;8.87;;;8.07;;
12840;SDS011;6487;48.626;12.486;2022-09-24T10:14:43;7.37;;;6.77;;
12840;SDS011;6487;48.626;12.486;2022-09-24T10:17:24;7.63;;;7.03;;
12840;SDS011;6487;48.626;12.486;2022-09-24T10:19:58;7.43;;;6.73;;
12840;SDS011;6487;48.626;12.486;2022-09-24T10:22:28;8.80;;;7.17;;
12840;SDS011;6487;48.626;12.486;2022-09-24T10:24:57;7.87;;;7.10;;
12840;SDS011;6487;48.626;12.486;2022-09-24T10:27:29;7.27;;;6.57;;
12840;SDS011;6487;48.626;12.486;2022-09-24T10:30:00;7.23;;;6.53;;
12840;SDS011;6487;48.626;12.486;2022-09-24T10:32:59;8.73;;;7.17;;
12840;SDS011;6487;48.626;12.486;2022-09-24T10:35:30;7.67;;;6.83;;
12840;SDS011;6487;48.626;12.486;2022-09-24T10:38:02;7.10;;;6.40;;
12840;SDS011;6487;48.626;12.486;2022-09-24T10:40:43;7.67;;;6.90;;
12840;SDS011;6487;48.626;12.486;2022-09-24T10:43:16;7.40;;;6.70;;
12840;SDS011;6487;48.626;12.486;2022-09-24T10:45:50;7.10;;;6.50;;
12840;SDS011;6487;48.626;12.486;2022-09-24T10:48:38;8.20;;;7.50;;
12840;SDS011;6487;48.626;12.486;2022-09-24T10:51:18;8.00;;;6.90;;
12840;SDS011;6487;48.626;12.486;2022-09-24T10:53:58;7.27;;;6.67;;
12840;SDS011;6487;48.626;12.486;2022-09-24T10:56:43;7.90;;;7.20;;
12840;SDS011;6487;48.626;12.486;2022-09-24T10:59:23;8.10;;;7.47;;
12840;SDS011;6487;48.626;12.486;2022-09-24T11:02:13;8.50;;;7.70;;
12840;SDS011;6487;48.626;12.486;2022-09-24T11:05:13;7.93;;;7.13;;
12840;SDS011;6487;48.626;12.486;2022-09-24T11:07:50;8.53;;;7.50;;
12840;SDS011;6487;48.626;12.486;2022-09-24T11:13:37;8.57;;;7.77;;
12840;SDS011;6487;48.626;12.486;2022-09-24T11:16:30;8.63;;;7.83;;
12840;SDS011;6487;48.626;12.486;2022-09-24T11:19:25;8.43;;;7.70;;
12840;SDS011;6487;48.626;12.486;2022-09-24T11:22:16;8.37;;;7.23;;
12840;SDS011;6487;48.626;12.486;2022-09-24T11:24:54;8.57;;;7.80;;
12840;SDS011;6487;48.626;12.486;2022-09-24T11:27:52;8.47;;;7.77;;
12840;SDS011;6487;48.626;12.486;2022-09-24T11:30:34;8.20;;;7.40;;
12840;SDS011;6487;48.626;12.486;2022-09-24T11:33:18;7.60;;;7.00;;
12840;SDS011;6487;48.626;12.486;2022-09-24T11:36:02;9.73;;;8.63;;
12840;SDS011;6487;48.626;12.486;2022-09-24T11:38:59;9.07;;;7.97;;
12840;SDS011;6487;48.626;12.486;2022-09-24T11:41:46;9.30;;;8.40;;
12840;SDS011;6487;48.626;12.486;2022-09-24T11:44:40;8.97;;;8.17;;
12840;SDS011;6487;48.626;12.486;2022-09-24T11:47:50;8.93;;;8.13;;
12840;SDS011;6487;48.626;12.486;2022-09-24T11:50:38;9.77;;;8.87;;
12840;SDS011;6487;48.626;12.486;2022-09-24T11:53:31;10.77;;;9.77;;
12840;SDS011;6487;48.626;12.486;2022-09-24T11:56:11;12.23;;;11.13;;
12840;SDS011;6487;48.626;12.486;2022-09-24T11:58:45;14.43;;;12.70;;
12840;SDS011;6487;48.626;12.486;2022-09-24T12:01:19;14.87;;;13.20;;
12840;SDS011;6487;48.626;12.486;2022-09-24T12:03:50;11.47;;;10.33;;
12840;SDS011;6487;48.626;12.486;2022-09-24T12:06:25;10.67;;;9.73;;
12840;SDS011;6487;48.626;12.486;2022-09-24T12:08:59;10.10;;;9.20;;
12840;SDS011;6487;48.626;12.486;2022-09-24T12:11:38;10.30;;;9.37;;
12840;SDS011;6487;48.626;12.486;2022-09-24T12:14:13;9.43;;;8.63;;
12840;SDS011;6487;48.626;12.486;2022-09-24T12:16:48;9.40;;;8.50;;
12840;SDS011;6487;48.626;12.486;2022-09-24T12:19:24;10.27;;;9.27;;
12840;SDS011;6487;48.626;12.486;2022-09-24T12:21:58;9.73;;;8.83;;
12840;SDS011;6487;48.626;12.486;2022-09-24T12:24:32;10.07;;;9.20;;
12840;SDS011;6487;48.626;12.486;2022-09-24T12:27:05;9.13;;;8.43;;
12840;SDS011;6487;48.626;12.486;2022-09-24T12:29:43;10.83;;;9.73;;
12840;SDS011;6487;48.626;12.486;2022-09-24T12:32:37;10.07;;;9.27;;
12840;SDS011;6487;48.626;12.486;2022-09-24T12:35:24;9.90;;;9.00;;
12840;SDS011;6487;48.626;12.486;2022-09-24T12:38:05;9.97;;;9.03;;
12840;SDS011;6487;48.626;12.486;2022-09-24T12:43:58;9.97;;;9.07;;
12840;SDS011;6487;48.626;12.486;2022-09-24T12:46:34;10.90;;;9.50;;
12840;SDS011;6487;48.626;12.486;2022-09-24T12:49:16;9.10;;;8.40;;
12840;SDS011;6487;48.626;12.486;2022-09-24T12:51:55;9.60;;;8.70;;
12840;SDS011;6487;48.626;12.486;2022-09-24T12:54:27;9.50;;;8.63;;
12840;SDS011;6487;48.626;12.486;2022-09-24T12:57:04;9.40;;;8.70;;
12840;SDS011;6487;48.626;12.486;2022-09-24T12:59:46;10.90;;;9.83;;
12840;SDS011;6487;48.626;12.486;2022-09-24T13:02:18;10.43;;;9.53;;
12840;SDS011;6487;48.626;12.486;2022-09-24T13:04:50;12.37;;;10.03;;
12840;SDS011;6487;48.626;12.486;2022-09-24T13:07:53;10.60;;;9.63;;
12840;SDS011;6487;48.626;12.486;2022-09-24T13:10:26;10.33;;;9.37;;
12840;SDS011;6487;48.626;12.486;2022-09-24T13:13:02;11.13;;;10.13;;
12840;SDS011;6487;48.626;12.486;2022-09-24T13:15:56;10.53;;;9.63;;
12840;SDS011;6487;48.626;12.486;2022-09-24T13:18:28;11.00;;;10.00;;
12840;SDS011;6487;48.626;12.486;2022-09-24T13:21:00;10.60;;;9.50;;
12840;SDS011;6487;48.626;12.486;2022-09-24T13:23:41;10.87;;;9.87;;
12840;SDS011;6487;48.626;12.486;2022-09-24T13:26:24;10.20;;;9.30;;
12840;SDS011;6487;48.626;12.486;2022-09-24T13:29:00;11.20;;;10.13;;
12840;SDS011;6487;48.626;12.486;2022-09-24T13:31:38;11.37;;;10.23;;
12840;SDS011;6487;48.626;12.486;2022-09-24T13:34:15;11.10;;;10.00;;
12840;SDS011;6487;48.626;12.486;2022-09-24T13:36:48;10.83;;;9.87;;
12840;SDS011;6487;48.626;12.486;2022-09-24T13:39:24;11.10;;;10.10;;
12840;SDS011;6487;48.626;12.486;2022-09-24T13:42:03;11.20;;;10.20;;
12840;SDS011;6487;48.626;12.486;2022-09-24T13:44:41;11.60;;;10.57;;
12840;SDS011;6487;48.626;12.486;2022-09-24T13:47:15;11.47;;;10.47;;
12840;SDS011;6487;48.626;12.486;2022-09-24T13:49:57;11.07;;;10.10;;
12840;SDS011;6487;48.626;12.486;2022-09-24T13:52:34;12.00;;;11.00;;
12840;SDS011;6487;48.626;12.486;2022-09-24T13:55:10;12.83;;;11.07;;
12840;SDS011;6487;48.626;12.486;2022-09-24T13:57:45;11.07;;;10.17;;
12840;SDS011;6487;48.626;12.486;2022-09-24T14:00:15;12.00;;;11.00;;
12840;SDS011;6487;48.626;12.486;2022-09-24T14:02:55;13.07;;;11.97;;
12840;SDS011;6487;48.626;12.486;2022-09-24T14:05:27;13.77;;;12.57;;
12840;SDS011;6487;48.626;12.486;2022-09-24T14:08:03;13.00;;;11.80;;
12840;SDS011;6487;48.626;12.486;2022-09-24T14:10:34;12.47;;;11.27;;
12840;SDS011;6487;48.626;12.486;2022-09-24T14:13:13;12.00;;;10.93;;
12840;SDS011;6487;48.626;12.486;2022-09-24T14:15:54;12.57;;;11.40;;
12840;SDS011;6487;48.626;12.486;2022-09-24T14:18:26;11.10;;;10.20;;
12840;SDS011;6487;48.626;12.486;2022-09-24T14:20:56;13.00;;;11.90;;
12840;SDS011;6487;48.626;12.486;2022-09-24T14:23:32;13.60;;;12.23;;
12840;SDS011;6487;48.626;12.486;2022-09-24T14:26:06;12.80;;;11.40;;
12840;SDS011;6487;48.626;12.486;2022-09-24T14:28:52;12.97;;;11.73;;
12840;SDS011;6487;48.626;12.486;2022-09-24T14:31:21;12.83;;;11.67;;
12840;SDS011;6487;48.626;12.486;2022-09-24T14:33:51;13.00;;;11.90;;
12840;SDS011;6487;48.626;12.486;2022-09-24T14:36:19;12.57;;;11.43;;
12840;SDS011;6487;48.626;12.486;2022-09-24T14:38:55;12.37;;;11.13;;
12840;SDS011;6487;48.626;12.486;2022-09-24T14:41:28;13.03;;;11.83;;
12840;SDS011;6487;48.626;12.486;2022-09-24T14:43:58;12.97;;;11.83;;
12840;SDS011;6487;48.626;12.486;2022-09-24T14:49:04;12.73;;;11.57;;
12840;SDS011;6487;48.626;12.486;2022-09-24T14:51:52;12.60;;;11.50;;
12840;SDS011;6487;48.626;12.486;2022-09-24T14:54:26;12.97;;;11.87;;
12840;SDS011;6487;48.626;12.486;2022-09-24T14:57:07;13.07;;;11.87;;
12840;SDS011;6487;48.626;12.486;2022-09-24T14:59:38;11.87;;;10.57;;
12840;SDS011;6487;48.626;12.486;2022-09-24T15:02:15;14.43;;;13.13;;
12840;SDS011;6487;48.626;12.486;2022-09-24T15:04:49;14.40;;;13.10;;
12840;SDS011;6487;48.626;12.486;2022-09-24T15:07:20;15.50;;;14.10;;
12840;SDS011;6487;48.626;12.486;2022-09-24T15:09:52;24.37;;;21.87;;
12840;SDS011;6487;48.626;12.486;2022-09-24T15:12:25;19.17;;;17.37;;
12840;SDS011;6487;48.626;12.486;2022-09-24T15:14:57;19.47;;;17.63;;
12840;SDS011;6487;48.626;12.486;2022-09-24T15:17:28;22.03;;;19.67;;
12840;SDS011;6487;48.626;12.486;2022-09-24T15:20:00;20.73;;;18.83;;
12840;SDS011;6487;48.626;12.486;2022-09-24T15:22:30;21.40;;;19.33;;
12840;SDS011;6487;48.626;12.486;2022-09-24T15:24:59;19.87;;;17.97;;
12840;SDS011;6487;48.626;12.486;2022-09-24T15:27:28;17.07;;;15.50;;
12840;SDS011;6487;48.626;12.486;2022-09-24T15:29:59;17.40;;;15.80;;
12840;SDS011;6487;48.626;12.486;2022-09-24T15:32:30;15.10;;;13.80;;
12840;SDS011;6487;48.626;12.486;2022-09-24T15:35:02;16.03;;;14.43;;